| time (UTC) | temp C | wind direction | speed KPH | gust KPH | rain 1hr cm | rain 24hr cm | rain mn cm | humidity % | barometer mb |
| 20260504160158 | 24 | 316 | 6.4 | 17.7 | 0.00 | 0.00 | 0.00 | 27 | 992.1 |
| 20260504151126 | 22 | 295 | 4.8 | 9.7 | 0.00 | 0.00 | 0.00 | 38 | 992.2 |
| 20260504150624 | 21 | 263 | 6.4 | 9.7 | 0.00 | 0.00 | 0.00 | 39 | 992.3 |
| 20260504150120 | 21 | 273 | 4.8 | 11.3 | 0.00 | 0.00 | 0.00 | 39 | 992.6 |
| 20260504141049 | 16 | 323 | 0.0 | 3.2 | 0.00 | 0.00 | 0.00 | 55 | 992.8 |
| 20260504140545 | 16 | 315 | 3.2 | 4.8 | 0.00 | 0.00 | 0.00 | 55 | 992.8 |
| 20260504130510 | 11 | 349 | 6.4 | 6.4 | 0.00 | 0.00 | 0.00 | 63 | 992.7 |
| 20260504110352 | 7 | 318 | 3.2 | 6.4 | 0.00 | 0.00 | 0.00 | 74 | 992.6 |
| 20260504100309 | 9 | 243 | 0.0 | 1.6 | 0.00 | 0.00 | 0.00 | 67 | 992.0 |
| 20260504081702 | 13 | 162 | 0.0 | 3.2 | 0.00 | 0.00 | 0.00 | 50 | 992.3 |
| 20260504081158 | 13 | 162 | 0.0 | 0.0 | 0.00 | 0.00 | 0.00 | 50 | 992.4 |
| 20260504080655 | 13 | 181 | 1.6 | 1.6 | 0.00 | 0.00 | 0.00 | 49 | 992.3 |
| 20260504080152 | 13 | 159 | 0.0 | 3.2 | 0.00 | 0.00 | 0.00 | 49 | 992.4 |
| 20260504070119 | 14 | 160 | 0.0 | 6.4 | 0.00 | 0.00 | 0.00 | 47 | 993.6 |
| 20260504050509 | 13 | 169 | 0.0 | 0.0 | 0.00 | 0.00 | 0.00 | 53 | 995.4 |
| 20260504050005 | 13 | 171 | 0.0 | 0.0 | 0.00 | 0.00 | 0.00 | 52 | 995.3 |
| 20260504045502 | 13 | 173 | 0.0 | 0.0 | 0.00 | 0.00 | 0.00 | 53 | 995.8 |
| 20260504044957 | 13 | 165 | 1.6 | 3.2 | 0.00 | 0.00 | 0.00 | 53 | 995.8 |
| 20260504044455 | 13 | 168 | 1.6 | 1.6 | 0.00 | 0.00 | 0.00 | 53 | 995.6 |
| 20260504043951 | 13 | 168 | 1.6 | 1.6 | 0.00 | 0.00 | 0.00 | 53 | 995.6 |
| 20260504043448 | 13 | 170 | 0.0 | 1.6 | 0.00 | 0.00 | 0.00 | 53 | 995.6 |
| 20260504042946 | 13 | 173 | 0.0 | 0.0 | 0.00 | 0.00 | 0.00 | 52 | 995.6 |
| 20260504042442 | 14 | 172 | 0.0 | 1.6 | 0.00 | 0.00 | 0.00 | 51 | 995.9 |
| 20260504041939 | 14 | 167 | 0.0 | 0.0 | 0.00 | 0.00 | 0.00 | 52 | 996.0 |
| 20260504041435 | 14 | 166 | 0.0 | 1.6 | 0.00 | 0.00 | 0.00 | 51 | 996.0 |
| 20260504040931 | 14 | 145 | 3.2 | 3.2 | 0.00 | 0.00 | 0.00 | 51 | 996.0 |
| 20260504040429 | 14 | 166 | 0.0 | 0.0 | 0.00 | 0.00 | 0.00 | 51 | 996.0 |
| 20260504035925 | 14 | 169 | 0.0 | 3.2 | 0.00 | 0.00 | 0.00 | 51 | 996.0 |
| 20260504035422 | 15 | 165 | 0.0 | 3.2 | 0.00 | 0.00 | 0.00 | 51 | 996.0 |
| 20260504034919 | 15 | 159 | 0.0 | 4.8 | 0.00 | 0.00 | 0.00 | 50 | 995.9 |
| 20260504034417 | 15 | 166 | 0.0 | 0.0 | 0.00 | 0.00 | 0.00 | 51 | 995.8 |
| 20260504033914 | 15 | 140 | 0.0 | 0.0 | 0.00 | 0.00 | 0.00 | 50 | 996.0 |
| 20260504033412 | 15 | 165 | 0.0 | 0.0 | 0.00 | 0.00 | 0.00 | 49 | 996.0 |
| 20260504032909 | 15 | 154 | 0.0 | 3.2 | 0.00 | 0.00 | 0.00 | 48 | 995.8 |
| 20260504032406 | 15 | 140 | 0.0 | 4.8 | 0.00 | 0.00 | 0.00 | 47 | 995.9 |
| 20260504031902 | 15 | 159 | 0.0 | 3.2 | 0.00 | 0.00 | 0.00 | 48 | 996.1 |
| 20260504031359 | 15 | 171 | 0.0 | 0.0 | 0.00 | 0.00 | 0.00 | 48 | 996.1 |
| 20260504030855 | 15 | 136 | 0.0 | 0.0 | 0.00 | 0.00 | 0.00 | 48 | 996.2 |
| 20260504030353 | 15 | 138 | 0.0 | 0.0 | 0.00 | 0.00 | 0.00 | 47 | 996.1 |
| 20260504025848 | 16 | 155 | 0.0 | 0.0 | 0.00 | 0.00 | 0.00 | 47 | 996.1 |
| 20260504025346 | 15 | 148 | 1.6 | 1.6 | 0.00 | 0.00 | 0.00 | 48 | 996.2 |
| 20260504024842 | 15 | 170 | 0.0 | 0.0 | 0.00 | 0.00 | 0.00 | 49 | 996.0 |
| 20260504024339 | 15 | 177 | 0.0 | 0.0 | 0.00 | 0.00 | 0.00 | 49 | 996.2 |
| 20260504023836 | 16 | 177 | 0.0 | 0.0 | 0.00 | 0.00 | 0.00 | 48 | 996.1 |
| 20260504023333 | 16 | 165 | 0.0 | 0.0 | 0.00 | 0.00 | 0.00 | 48 | 996.1 |
| 20260504022828 | 16 | 165 | 0.0 | 0.0 | 0.00 | 0.00 | 0.00 | 49 | 996.4 |
| 20260504022325 | 16 | 145 | 0.0 | 0.0 | 0.00 | 0.00 | 0.00 | 48 | 996.3 |
| 20260504021822 | 16 | 144 | 0.0 | 0.0 | 0.00 | 0.00 | 0.00 | 48 | 996.4 |
| 20260504021320 | 16 | 144 | 0.0 | 0.0 | 0.00 | 0.00 | 0.00 | 47 | 996.3 |
| 20260504020817 | 16 | 145 | 0.0 | 0.0 | 0.00 | 0.00 | 0.00 | 47 | 996.3 |
| 20260504020313 | 16 | 140 | 0.0 | 0.0 | 0.00 | 0.00 | 0.00 | 47 | 996.5 |
| 20260504015809 | 17 | 145 | 0.0 | 0.0 | 0.00 | 0.00 | 0.00 | 45 | 996.1 |
| 20260504015305 | 17 | 145 | 0.0 | 0.0 | 0.00 | 0.00 | 0.00 | 44 | 996.3 |
| 20260504014802 | 18 | 145 | 0.0 | 0.0 | 0.00 | 0.00 | 0.00 | 42 | 996.1 |
| 20260504014258 | 18 | 125 | 0.0 | 0.0 | 0.00 | 0.00 | 0.00 | 41 | 996.1 |
| 20260504013756 | 18 | 143 | 0.0 | 0.0 | 0.00 | 0.00 | 0.00 | 41 | 996.2 |
| 20260504013253 | 18 | 79 | 0.0 | 0.0 | 0.00 | 0.00 | 0.00 | 41 | 996.2 |
| 20260504012749 | 19 | 79 | 0.0 | 0.0 | 0.00 | 0.00 | 0.00 | 39 | 996.2 |
| 20260504012248 | 20 | 69 | 0.0 | 0.0 | 0.00 | 0.00 | 0.00 | 39 | 996.3 |
| 20260504011744 | 20 | 84 | 0.0 | 0.0 | 0.00 | 0.00 | 0.00 | 38 | 996.3 |
| 20260504011241 | 20 | 83 | 0.0 | 0.0 | 0.00 | 0.00 | 0.00 | 37 | 996.3 |
| 20260504010737 | 20 | 148 | 0.0 | 0.0 | 0.00 | 0.00 | 0.00 | 38 | 996.3 |
| 20260504010233 | 20 | 153 | 0.0 | 0.0 | 0.00 | 0.00 | 0.00 | 37 | 996.3 |
| 20260504005730 | 20 | 166 | 0.0 | 0.0 | 0.00 | 0.00 | 0.00 | 37 | 996.2 |
| 20260504005227 | 21 | 145 | 0.0 | 0.0 | 0.00 | 0.00 | 0.00 | 36 | 996.5 |
| 20260504004724 | 21 | 165 | 0.0 | 0.0 | 0.00 | 0.00 | 0.00 | 35 | 996.4 |
| 20260504004221 | 21 | 174 | 0.0 | 0.0 | 0.00 | 0.00 | 0.00 | 35 | 996.4 |
| 20260504003718 | 21 | 83 | 0.0 | 0.0 | 0.00 | 0.00 | 0.00 | 35 | 996.9 |
| 20260504003215 | 21 | 154 | 0.0 | 0.0 | 0.00 | 0.00 | 0.00 | 36 | 996.8 |
| 20260504002712 | 22 | 16 | 0.0 | 0.0 | 0.00 | 0.00 | 0.00 | 34 | 996.7 |
| 20260504002209 | 22 | 183 | 0.0 | 0.0 | 0.00 | 0.00 | 0.00 | 35 | 996.8 |
| 20260504001707 | 22 | 89 | 0.0 | 3.2 | 0.00 | 0.00 | 0.00 | 32 | 996.9 |
| 20260504001203 | 22 | 328 | 0.0 | 0.0 | 0.00 | 0.00 | 0.00 | 32 | 996.9 |
| 20260504000700 | 22 | 87 | 0.0 | 0.0 | 0.00 | 0.00 | 0.00 | 32 | 997.1 |
| 20260504000157 | 22 | 318 | 0.0 | 0.0 | 0.00 | 0.00 | 0.00 | 31 | 997.1 |
| 20260503235655 | 22 | 52 | 0.0 | 6.4 | 0.00 | 0.00 | 0.00 | 31 | 997.1 |
| 20260503235151 | 23 | 353 | 0.0 | 1.6 | 0.00 | 0.00 | 0.00 | 32 | 997.1 |
| 20260503234650 | 23 | 207 | 0.0 | 3.2 | 0.00 | 0.00 | 0.00 | 35 | 997.4 |
| 20260503234148 | 23 | 11 | 4.8 | 6.4 | 0.00 | 0.00 | 0.00 | 31 | 997.2 |
| 20260503233644 | 23 | 82 | 1.6 | 4.8 | 0.00 | 0.00 | 0.00 | 31 | 997.4 |
| 20260503233140 | 23 | 332 | 0.0 | 1.6 | 0.00 | 0.00 | 0.00 | 30 | 997.4 |
| 20260503232637 | 23 | 97 | 0.0 | 0.0 | 0.00 | 0.00 | 0.00 | 30 | 997.5 |
| 20260503232134 | 23 | 57 | 0.0 | 0.0 | 0.00 | 0.00 | 0.00 | 35 | 997.4 |
| 20260503231632 | 22 | 34 | 0.0 | 0.0 | 0.00 | 0.00 | 0.00 | 33 | 997.6 |
| 20260503231128 | 22 | 42 | 0.0 | 0.0 | 0.00 | 0.00 | 0.00 | 32 | 997.5 |
| 20260503230625 | 23 | 1 | 1.6 | 3.2 | 0.00 | 0.00 | 0.00 | 31 | 997.7 |
| 20260503230122 | 23 | 73 | 0.0 | 0.0 | 0.00 | 0.00 | 0.00 | 33 | 997.6 |
| 20260503225620 | 23 | 20 | 0.0 | 0.0 | 0.00 | 0.00 | 0.00 | 30 | 997.6 |
| 20260503225119 | 23 | 8 | 0.0 | 0.0 | 0.00 | 0.00 | 0.00 | 30 | 997.6 |
| 20260503224617 | 23 | 347 | 0.0 | 0.0 | 0.00 | 0.00 | 0.00 | 30 | 997.6 |
| 20260503224115 | 23 | 22 | 0.0 | 0.0 | 0.00 | 0.00 | 0.00 | 31 | 997.6 |
| 20260503223613 | 23 | 354 | 0.0 | 6.4 | 0.00 | 0.00 | 0.00 | 31 | 997.7 |
| 20260503223108 | 23 | 359 | 3.2 | 3.2 | 0.00 | 0.00 | 0.00 | 30 | 997.7 |
| 20260503222606 | 23 | 154 | 0.0 | 0.0 | 0.00 | 0.00 | 0.00 | 30 | 997.7 |
| 20260503222103 | 25 | 142 | 1.6 | 4.8 | 0.00 | 0.00 | 0.00 | 30 | 997.8 |
| 20260503221601 | 24 | 318 | 0.0 | 0.0 | 0.00 | 0.00 | 0.00 | 28 | 997.8 |
| 20260503221059 | 24 | 250 | 0.0 | 0.0 | 0.00 | 0.00 | 0.00 | 30 | 997.9 |
| 20260503220555 | 23 | 298 | 0.0 | 0.0 | 0.00 | 0.00 | 0.00 | 28 | 998.0 |
| 20260503220052 | 24 | 192 | 0.0 | 3.2 | 0.00 | 0.00 | 0.00 | 33 | 998.0 |
| 20260503215549 | 25 | 149 | 0.0 | 0.0 | 0.00 | 0.00 | 0.00 | 31 | 998.2 |
| 20260503215046 | 24 | 51 | 1.6 | 4.8 | 0.00 | 0.00 | 0.00 | 29 | 998.2 |
| 20260503214544 | 24 | 181 | 0.0 | 0.0 | 0.00 | 0.00 | 0.00 | 30 | 998.3 |
| 20260503214040 | 25 | 126 | 0.0 | 0.0 | 0.00 | 0.00 | 0.00 | 30 | 998.3 |
| 20260503213539 | 23 | 107 | 0.0 | 0.0 | 0.00 | 0.00 | 0.00 | 28 | 998.2 |
| 20260503213035 | 25 | 8 | 3.2 | 9.7 | 0.00 | 0.00 | 0.00 | 31 | 998.2 |
| 20260503212532 | 24 | 289 | 0.0 | 4.8 | 0.00 | 0.00 | 0.00 | 28 | 998.2 |
| 20260503212030 | 24 | 83 | 0.0 | 4.8 | 0.00 | 0.00 | 0.00 | 29 | 998.3 |
| 20260503211527 | 24 | 69 | 0.0 | 0.0 | 0.00 | 0.00 | 0.00 | 31 | 998.5 |
| 20260503211022 | 24 | 342 | 1.6 | 6.4 | 0.00 | 0.00 | 0.00 | 30 | 998.6 |
| 20260503210519 | 24 | 351 | 0.0 | 0.0 | 0.00 | 0.00 | 0.00 | 31 | 998.5 |
| 20260503210015 | 25 | 76 | 0.0 | 1.6 | 0.00 | 0.00 | 0.00 | 29 | 998.7 |
| 20260503205512 | 24 | 351 | 0.0 | 3.2 | 0.00 | 0.00 | 0.00 | 28 | 998.7 |
| 20260503205008 | 24 | 78 | 0.0 | 3.2 | 0.00 | 0.00 | 0.00 | 30 | 998.8 |
| 20260503204505 | 24 | 134 | 0.0 | 3.2 | 0.00 | 0.00 | 0.00 | 29 | 998.7 |
| 20260503204002 | 24 | 104 | 1.6 | 9.7 | 0.00 | 0.00 | 0.00 | 29 | 998.8 |
| 20260503203459 | 23 | 16 | 8.0 | 11.3 | 0.00 | 0.00 | 0.00 | 31 | 999.0 |
| 20260503202956 | 23 | 14 | 0.0 | 9.7 | 0.00 | 0.00 | 0.00 | 34 | 999.0 |
| 20260503202454 | 23 | 325 | 1.6 | 6.4 | 0.00 | 0.00 | 0.00 | 33 | 999.0 |
| 20260503201952 | 23 | 10 | 3.2 | 9.7 | 0.00 | 0.00 | 0.00 | 31 | 999.1 |
| 20260503201449 | 23 | 79 | 1.6 | 6.4 | 0.00 | 0.00 | 0.00 | 32 | 999.1 |
| 20260503200947 | 23 | 51 | 3.2 | 12.9 | 0.00 | 0.00 | 0.00 | 31 | 999.3 |
| 20260503200444 | 23 | 45 | 0.0 | 11.3 | 0.00 | 0.00 | 0.00 | 33 | 999.3 |
| 20260503195940 | 23 | 30 | 4.8 | 6.4 | 0.00 | 0.00 | 0.00 | 31 | 999.3 |
| 20260503195438 | 23 | 326 | 0.0 | 3.2 | 0.00 | 0.00 | 0.00 | 30 | 999.5 |
| 20260503194934 | 23 | 33 | 3.2 | 11.3 | 0.00 | 0.00 | 0.00 | 31 | 999.6 |
| 20260503194431 | 23 | 40 | 0.0 | 11.3 | 0.00 | 0.00 | 0.00 | 32 | 999.4 |
| 20260503193926 | 23 | 0 | 8.0 | 9.7 | 0.00 | 0.00 | 0.00 | 29 | 999.6 |
| 20260503193422 | 23 | 24 | 3.2 | 12.9 | 0.00 | 0.00 | 0.00 | 31 | 999.6 |
| 20260503192918 | 23 | 59 | 0.0 | 4.8 | 0.00 | 0.00 | 0.00 | 35 | 999.5 |
| 20260503192414 | 23 | 13 | 3.2 | 9.7 | 0.00 | 0.00 | 0.00 | 33 | 999.8 |
| 20260503191909 | 23 | 174 | 0.0 | 3.2 | 0.00 | 0.00 | 0.00 | 31 | 999.9 |
| 20260503191408 | 22 | 316 | 0.0 | 12.9 | 0.00 | 0.00 | 0.00 | 31 | 1000.0 |
| 20260503190903 | 23 | 348 | 8.0 | 11.3 | 0.00 | 0.00 | 0.00 | 32 | 1000.0 |
| 20260503190401 | 24 | 2 | 6.4 | 6.4 | 0.00 | 0.00 | 0.00 | 28 | 1000.0 |
| 20260503185857 | 22 | 3 | 0.0 | 1.6 | 0.00 | 0.00 | 0.00 | 33 | 1000.0 |
| 20260503185354 | 23 | 39 | 6.4 | 11.3 | 0.00 | 0.00 | 0.00 | 30 | 1000.1 |
| 20260503184854 | 22 | 316 | 4.8 | 4.8 | 0.00 | 0.00 | 0.00 | 30 | 1000.1 |
| 20260503184350 | 23 | 55 | 6.4 | 9.7 | 0.00 | 0.00 | 0.00 | 32 | 1000.0 |
| 20260503183846 | 22 | 13 | 1.6 | 3.2 | 0.00 | 0.00 | 0.00 | 33 | 1000.1 |
| 20260503183343 | 22 | 88 | 0.0 | 3.2 | 0.00 | 0.00 | 0.00 | 30 | 1000.2 |
| 20260503182840 | 22 | 2 | 9.7 | 12.9 | 0.00 | 0.00 | 0.00 | 31 | 1000.2 |
| 20260503182340 | 22 | 29 | 1.6 | 6.4 | 0.00 | 0.00 | 0.00 | 32 | 1000.6 |
| 20260503181836 | 22 | 62 | 0.0 | 9.7 | 0.00 | 0.00 | 0.00 | 34 | 1000.6 |
| 20260503181333 | 22 | 184 | 0.0 | 9.7 | 0.00 | 0.00 | 0.00 | 39 | 1000.6 |
| 20260503180830 | 22 | 83 | 3.2 | 6.4 | 0.00 | 0.00 | 0.00 | 33 | 1000.6 |
| 20260503180328 | 22 | 347 | 4.8 | 14.5 | 0.00 | 0.00 | 0.00 | 32 | 1000.6 |
| 20260503175824 | 22 | 23 | 4.8 | 11.3 | 0.00 | 0.00 | 0.00 | 33 | 1001.0 |
| 20260503175322 | 21 | 34 | 9.7 | 12.9 | 0.00 | 0.00 | 0.00 | 32 | 1000.8 |
| 20260503174817 | 21 | 7 | 1.6 | 1.6 | 0.00 | 0.00 | 0.00 | 32 | 1000.9 |
| 20260503174316 | 22 | 25 | 1.6 | 9.7 | 0.00 | 0.00 | 0.00 | 31 | 1001.0 |
| 20260503173811 | 23 | 31 | 1.6 | 6.4 | 0.00 | 0.00 | 0.00 | 36 | 1001.0 |
| 20260503173308 | 22 | 159 | 0.0 | 0.0 | 0.00 | 0.00 | 0.00 | 39 | 1001.2 |
| 20260503172805 | 21 | 41 | 4.8 | 9.7 | 0.00 | 0.00 | 0.00 | 33 | 1001.2 |
| 20260503172305 | 21 | 359 | 3.2 | 9.7 | 0.00 | 0.00 | 0.00 | 35 | 1001.2 |
| 20260503171758 | 21 | 5 | 3.2 | 9.7 | 0.00 | 0.00 | 0.00 | 33 | 1001.3 |
| 20260503171255 | 21 | 41 | 0.0 | 12.9 | 0.00 | 0.00 | 0.00 | 36 | 1001.3 |
| 20260503170752 | 21 | 74 | 0.0 | 9.7 | 0.00 | 0.00 | 0.00 | 39 | 1001.4 |
| 20260503170249 | 21 | 346 | 6.4 | 16.1 | 0.00 | 0.00 | 0.00 | 34 | 1001.4 |